sensor_id;sensor_type;location;lat;lon;timestamp;temperature;humidity
12481;DHT22;6305;48.398;11.762;2022-11-13T00:02:26;3.40;99.90
12481;DHT22;6305;48.398;11.762;2022-11-13T00:04:53;3.40;99.90
12481;DHT22;6305;48.398;11.762;2022-11-13T00:07:21;3.40;99.90
12481;DHT22;6305;48.398;11.762;2022-11-13T00:09:48;3.40;99.90
12481;DHT22;6305;48.398;11.762;2022-11-13T00:12:14;3.40;99.90
12481;DHT22;6305;48.398;11.762;2022-11-13T00:14:42;3.40;99.90
12481;DHT22;6305;48.398;11.762;2022-11-13T00:17:09;3.40;99.90
12481;DHT22;6305;48.398;11.762;2022-11-13T00:19:36;3.40;99.90
12481;DHT22;6305;48.398;11.762;2022-11-13T00:22:03;3.40;99.90
12481;DHT22;6305;48.398;11.762;2022-11-13T00:24:31;3.40;99.90
12481;DHT22;6305;48.398;11.762;2022-11-13T00:26:58;3.40;99.90
12481;DHT22;6305;48.398;11.762;2022-11-13T00:29:25;3.40;99.90
12481;DHT22;6305;48.398;11.762;2022-11-13T00:31:51;3.40;99.90
12481;DHT22;6305;48.398;11.762;2022-11-13T00:34:18;3.40;99.90
12481;DHT22;6305;48.398;11.762;2022-11-13T00:36:45;3.40;99.90
12481;DHT22;6305;48.398;11.762;2022-11-13T00:39:12;3.40;99.90
12481;DHT22;6305;48.398;11.762;2022-11-13T00:41:40;3.40;99.90
12481;DHT22;6305;48.398;11.762;2022-11-13T00:44:07;3.40;99.90
12481;DHT22;6305;48.398;11.762;2022-11-13T00:46:34;3.40;99.90
12481;DHT22;6305;48.398;11.762;2022-11-13T00:49:00;3.40;99.90
12481;DHT22;6305;48.398;11.762;2022-11-13T00:51:27;3.50;99.90
12481;DHT22;6305;48.398;11.762;2022-11-13T00:53:54;3.50;99.90
12481;DHT22;6305;48.398;11.762;2022-11-13T00:56:21;3.40;99.90
12481;DHT22;6305;48.398;11.762;2022-11-13T00:58:49;3.40;99.90
12481;DHT22;6305;48.398;11.762;2022-11-13T01:01:17;3.40;99.90
12481;DHT22;6305;48.398;11.762;2022-11-13T01:03:45;3.40;99.90
12481;DHT22;6305;48.398;11.762;2022-11-13T01:06:13;3.30;99.90
12481;DHT22;6305;48.398;11.762;2022-11-13T01:08:40;3.30;99.90
12481;DHT22;6305;48.398;11.762;2022-11-13T01:11:09;3.30;99.90
12481;DHT22;6305;48.398;11.762;2022-11-13T01:13:36;3.20;99.90
12481;DHT22;6305;48.398;11.762;2022-11-13T01:16:06;3.20;99.90
12481;DHT22;6305;48.398;11.762;2022-11-13T01:18:34;3.10;99.90
12481;DHT22;6305;48.398;11.762;2022-11-13T01:21:02;3.10;99.90
12481;DHT22;6305;48.398;11.762;2022-11-13T01:23:29;3.10;99.90
12481;DHT22;6305;48.398;11.762;2022-11-13T01:26:04;3.10;99.90
12481;DHT22;6305;48.398;11.762;2022-11-13T01:28:31;3.00;99.90
12481;DHT22;6305;48.398;11.762;2022-11-13T01:30:58;3.00;99.90
12481;DHT22;6305;48.398;11.762;2022-11-13T01:33:26;2.90;99.90
12481;DHT22;6305;48.398;11.762;2022-11-13T01:35:58;2.90;99.90
12481;DHT22;6305;48.398;11.762;2022-11-13T01:38:25;2.90;99.90
12481;DHT22;6305;48.398;11.762;2022-11-13T01:40:52;2.80;99.90
12481;DHT22;6305;48.398;11.762;2022-11-13T01:43:23;2.80;99.90
12481;DHT22;6305;48.398;11.762;2022-11-13T01:46:15;2.80;99.90
12481;DHT22;6305;48.398;11.762;2022-11-13T01:48:46;2.70;99.90
12481;DHT22;6305;48.398;11.762;2022-11-13T01:51:19;2.70;99.90
12481;DHT22;6305;48.398;11.762;2022-11-13T01:53:48;2.70;99.90
12481;DHT22;6305;48.398;11.762;2022-11-13T01:56:16;2.70;99.90
12481;DHT22;6305;48.398;11.762;2022-11-13T01:58:47;2.70;99.90
12481;DHT22;6305;48.398;11.762;2022-11-13T02:01:14;2.60;99.90
12481;DHT22;6305;48.398;11.762;2022-11-13T02:03:42;2.60;99.90
12481;DHT22;6305;48.398;11.762;2022-11-13T02:06:09;2.60;99.90
12481;DHT22;6305;48.398;11.762;2022-11-13T02:08:36;2.60;99.90
12481;DHT22;6305;48.398;11.762;2022-11-13T02:11:03;2.60;99.90
12481;DHT22;6305;48.398;11.762;2022-11-13T02:13:31;2.60;99.90
12481;DHT22;6305;48.398;11.762;2022-11-13T02:15:59;2.60;99.90
12481;DHT22;6305;48.398;11.762;2022-11-13T02:18:28;2.60;99.90
12481;DHT22;6305;48.398;11.762;2022-11-13T02:21:05;2.60;99.90
12481;DHT22;6305;48.398;11.762;2022-11-13T02:23:39;2.60;99.90
12481;DHT22;6305;48.398;11.762;2022-11-13T02:26:11;2.60;99.90
12481;DHT22;6305;48.398;11.762;2022-11-13T02:28:38;2.60;99.90
12481;DHT22;6305;48.398;11.762;2022-11-13T02:31:06;2.60;99.90
12481;DHT22;6305;48.398;11.762;2022-11-13T02:33:34;2.60;99.90
12481;DHT22;6305;48.398;11.762;2022-11-13T02:36:01;2.60;99.90
12481;DHT22;6305;48.398;11.762;2022-11-13T02:38:29;2.50;99.90
12481;DHT22;6305;48.398;11.762;2022-11-13T02:40:57;2.50;99.90
12481;DHT22;6305;48.398;11.762;2022-11-13T02:43:26;2.50;99.90
12481;DHT22;6305;48.398;11.762;2022-11-13T02:45:53;2.40;99.90
12481;DHT22;6305;48.398;11.762;2022-11-13T02:48:19;2.40;99.90
12481;DHT22;6305;48.398;11.762;2022-11-13T02:50:46;2.40;99.90
12481;DHT22;6305;48.398;11.762;2022-11-13T02:53:13;2.30;99.90
12481;DHT22;6305;48.398;11.762;2022-11-13T02:55:40;2.30;99.90
12481;DHT22;6305;48.398;11.762;2022-11-13T02:58:09;2.30;99.90
12481;DHT22;6305;48.398;11.762;2022-11-13T03:00:37;2.30;99.90
12481;DHT22;6305;48.398;11.762;2022-11-13T03:03:04;2.20;99.90
12481;DHT22;6305;48.398;11.762;2022-11-13T03:05:31;2.30;99.90
12481;DHT22;6305;48.398;11.762;2022-11-13T03:07:57;2.20;99.90
12481;DHT22;6305;48.398;11.762;2022-11-13T03:10:24;2.20;99.90
12481;DHT22;6305;48.398;11.762;2022-11-13T03:12:51;2.20;99.90
12481;DHT22;6305;48.398;11.762;2022-11-13T03:15:18;2.20;99.90
12481;DHT22;6305;48.398;11.762;2022-11-13T03:17:46;2.10;99.90
12481;DHT22;6305;48.398;11.762;2022-11-13T03:20:13;2.10;99.90
12481;DHT22;6305;48.398;11.762;2022-11-13T03:22:39;2.10;99.90
12481;DHT22;6305;48.398;11.762;2022-11-13T03:25:07;2.10;99.90
12481;DHT22;6305;48.398;11.762;2022-11-13T03:27:34;2.10;99.90
12481;DHT22;6305;48.398;11.762;2022-11-13T03:30:00;2.10;99.90
12481;DHT22;6305;48.398;11.762;2022-11-13T03:32:27;2.10;99.90
12481;DHT22;6305;48.398;11.762;2022-11-13T03:34:55;2.00;99.90
12481;DHT22;6305;48.398;11.762;2022-11-13T03:37:22;2.00;99.90
12481;DHT22;6305;48.398;11.762;2022-11-13T03:39:49;2.00;99.90
12481;DHT22;6305;48.398;11.762;2022-11-13T03:42:15;1.90;99.90
12481;DHT22;6305;48.398;11.762;2022-11-13T03:44:42;1.90;99.90
12481;DHT22;6305;48.398;11.762;2022-11-13T03:47:09;1.90;99.90
12481;DHT22;6305;48.398;11.762;2022-11-13T03:49:36;1.90;99.90
12481;DHT22;6305;48.398;11.762;2022-11-13T03:52:04;1.90;99.90
12481;DHT22;6305;48.398;11.762;2022-11-13T03:54:31;1.80;99.90
12481;DHT22;6305;48.398;11.762;2022-11-13T03:56:57;1.80;99.90
12481;DHT22;6305;48.398;11.762;2022-11-13T03:59:24;1.80;99.90
12481;DHT22;6305;48.398;11.762;2022-11-13T04:01:51;1.80;99.90
12481;DHT22;6305;48.398;11.762;2022-11-13T04:04:18;1.80;99.90
12481;DHT22;6305;48.398;11.762;2022-11-13T04:06:44;1.80;99.90
12481;DHT22;6305;48.398;11.762;2022-11-13T04:09:12;1.80;99.90
12481;DHT22;6305;48.398;11.762;2022-11-13T04:11:39;1.80;99.90
12481;DHT22;6305;48.398;11.762;2022-11-13T04:14:06;1.80;99.90
12481;DHT22;6305;48.398;11.762;2022-11-13T04:16:33;1.80;99.90
12481;DHT22;6305;48.398;11.762;2022-11-13T04:18:59;1.80;99.90
12481;DHT22;6305;48.398;11.762;2022-11-13T04:21:26;1.80;99.90
12481;DHT22;6305;48.398;11.762;2022-11-13T04:23:53;1.80;99.90
12481;DHT22;6305;48.398;11.762;2022-11-13T04:26:21;1.80;99.90
12481;DHT22;6305;48.398;11.762;2022-11-13T04:28:48;1.90;99.90
12481;DHT22;6305;48.398;11.762;2022-11-13T04:31:15;1.90;99.90
12481;DHT22;6305;48.398;11.762;2022-11-13T04:33:41;1.90;99.90
12481;DHT22;6305;48.398;11.762;2022-11-13T04:36:09;1.90;99.90
12481;DHT22;6305;48.398;11.762;2022-11-13T04:38:35;1.80;99.90
12481;DHT22;6305;48.398;11.762;2022-11-13T04:41:02;1.80;99.90
12481;DHT22;6305;48.398;11.762;2022-11-13T04:43:48;1.80;99.90
12481;DHT22;6305;48.398;11.762;2022-11-13T04:46:15;1.70;99.90
12481;DHT22;6305;48.398;11.762;2022-11-13T04:48:41;1.70;99.90
12481;DHT22;6305;48.398;11.762;2022-11-13T04:51:08;1.70;99.90
12481;DHT22;6305;48.398;11.762;2022-11-13T04:53:35;1.70;99.90
12481;DHT22;6305;48.398;11.762;2022-11-13T04:56:02;1.70;99.90
12481;DHT22;6305;48.398;11.762;2022-11-13T04:58:29;1.70;99.90
12481;DHT22;6305;48.398;11.762;2022-11-13T05:01:00;1.70;99.90
12481;DHT22;6305;48.398;11.762;2022-11-13T05:03:28;1.70;99.90
12481;DHT22;6305;48.398;11.762;2022-11-13T05:06:00;1.70;99.90
12481;DHT22;6305;48.398;11.762;2022-11-13T05:08:27;1.70;99.90
12481;DHT22;6305;48.398;11.762;2022-11-13T05:10:54;1.60;99.90
12481;DHT22;6305;48.398;11.762;2022-11-13T05:13:21;1.60;99.90
12481;DHT22;6305;48.398;11.762;2022-11-13T05:15:48;1.60;99.90
12481;DHT22;6305;48.398;11.762;2022-11-13T05:18:16;1.60;99.90
12481;DHT22;6305;48.398;11.762;2022-11-13T05:20:43;1.60;99.90
12481;DHT22;6305;48.398;11.762;2022-11-13T05:23:10;1.60;99.90
12481;DHT22;6305;48.398;11.762;2022-11-13T05:25:36;1.60;99.90
12481;DHT22;6305;48.398;11.762;2022-11-13T05:28:04;1.60;99.90
12481;DHT22;6305;48.398;11.762;2022-11-13T05:30:30;1.60;99.90
12481;DHT22;6305;48.398;11.762;2022-11-13T05:32:57;1.60;99.90
12481;DHT22;6305;48.398;11.762;2022-11-13T05:35:25;1.50;99.90
12481;DHT22;6305;48.398;11.762;2022-11-13T05:37:52;1.50;99.90
12481;DHT22;6305;48.398;11.762;2022-11-13T05:40:19;1.50;99.90
12481;DHT22;6305;48.398;11.762;2022-11-13T05:42:46;1.50;99.90
12481;DHT22;6305;48.398;11.762;2022-11-13T05:45:13;1.50;99.90
12481;DHT22;6305;48.398;11.762;2022-11-13T05:47:39;1.50;99.90
12481;DHT22;6305;48.398;11.762;2022-11-13T05:50:07;1.50;99.90
12481;DHT22;6305;48.398;11.762;2022-11-13T05:52:38;1.40;99.90
12481;DHT22;6305;48.398;11.762;2022-11-13T05:55:06;1.30;99.90
12481;DHT22;6305;48.398;11.762;2022-11-13T05:57:33;1.30;99.90
12481;DHT22;6305;48.398;11.762;2022-11-13T06:00:00;1.30;99.90
12481;DHT22;6305;48.398;11.762;2022-11-13T06:02:27;1.20;99.90
12481;DHT22;6305;48.398;11.762;2022-11-13T06:04:53;1.20;99.90
12481;DHT22;6305;48.398;11.762;2022-11-13T06:07:20;1.20;99.90
12481;DHT22;6305;48.398;11.762;2022-11-13T06:09:48;1.20;99.90
12481;DHT22;6305;48.398;11.762;2022-11-13T06:12:15;1.30;99.90
12481;DHT22;6305;48.398;11.762;2022-11-13T06:14:42;1.30;99.90
12481;DHT22;6305;48.398;11.762;2022-11-13T06:17:08;1.30;99.90
12481;DHT22;6305;48.398;11.762;2022-11-13T06:19:35;1.30;99.90
12481;DHT22;6305;48.398;11.762;2022-11-13T06:22:02;1.30;99.90
12481;DHT22;6305;48.398;11.762;2022-11-13T06:24:29;1.30;99.90
12481;DHT22;6305;48.398;11.762;2022-11-13T06:26:57;1.30;99.90
12481;DHT22;6305;48.398;11.762;2022-11-13T06:29:24;1.30;99.90
12481;DHT22;6305;48.398;11.762;2022-11-13T06:31:51;1.30;99.90
12481;DHT22;6305;48.398;11.762;2022-11-13T06:34:17;1.40;99.90
12481;DHT22;6305;48.398;11.762;2022-11-13T06:36:44;1.30;99.90
12481;DHT22;6305;48.398;11.762;2022-11-13T06:39:11;1.40;99.90
12481;DHT22;6305;48.398;11.762;2022-11-13T06:41:38;1.40;99.90
12481;DHT22;6305;48.398;11.762;2022-11-13T06:44:06;1.40;99.90
12481;DHT22;6305;48.398;11.762;2022-11-13T06:46:33;1.40;99.90
12481;DHT22;6305;48.398;11.762;2022-11-13T06:49:00;1.40;99.90
12481;DHT22;6305;48.398;11.762;2022-11-13T06:51:29;1.50;99.90
12481;DHT22;6305;48.398;11.762;2022-11-13T06:53:56;1.50;99.90
12481;DHT22;6305;48.398;11.762;2022-11-13T06:56:24;1.60;99.90
12481;DHT22;6305;48.398;11.762;2022-11-13T06:58:51;1.70;99.90
12481;DHT22;6305;48.398;11.762;2022-11-13T07:01:20;1.70;99.90
12481;DHT22;6305;48.398;11.762;2022-11-13T07:03:47;1.80;99.90
12481;DHT22;6305;48.398;11.762;2022-11-13T07:06:16;1.90;99.90
12481;DHT22;6305;48.398;11.762;2022-11-13T07:08:43;1.90;99.90
12481;DHT22;6305;48.398;11.762;2022-11-13T07:11:12;2.00;99.90
12481;DHT22;6305;48.398;11.762;2022-11-13T07:13:40;2.10;99.90
12481;DHT22;6305;48.398;11.762;2022-11-13T07:16:08;2.20;99.90
12481;DHT22;6305;48.398;11.762;2022-11-13T07:18:36;2.30;99.90
12481;DHT22;6305;48.398;11.762;2022-11-13T07:21:05;2.40;99.90
12481;DHT22;6305;48.398;11.762;2022-11-13T07:23:32;2.40;99.90
12481;DHT22;6305;48.398;11.762;2022-11-13T07:26:01;2.40;99.90
12481;DHT22;6305;48.398;11.762;2022-11-13T07:28:28;2.40;99.90
12481;DHT22;6305;48.398;11.762;2022-11-13T07:30:56;2.40;99.90
12481;DHT22;6305;48.398;11.762;2022-11-13T07:33:23;2.60;99.90
12481;DHT22;6305;48.398;11.762;2022-11-13T07:35:54;2.80;99.90
12481;DHT22;6305;48.398;11.762;2022-11-13T07:38:21;2.90;99.90
12481;DHT22;6305;48.398;11.762;2022-11-13T07:40:49;2.80;99.90
12481;DHT22;6305;48.398;11.762;2022-11-13T07:43:15;2.90;99.90
12481;DHT22;6305;48.398;11.762;2022-11-13T07:45:42;3.30;99.90
12481;DHT22;6305;48.398;11.762;2022-11-13T07:48:10;3.70;99.90
12481;DHT22;6305;48.398;11.762;2022-11-13T07:50:37;4.70;99.90
12481;DHT22;6305;48.398;11.762;2022-11-13T07:53:07;6.20;99.90
12481;DHT22;6305;48.398;11.762;2022-11-13T07:55:35;7.80;99.90
12481;DHT22;6305;48.398;11.762;2022-11-13T07:58:03;9.20;99.90
12481;DHT22;6305;48.398;11.762;2022-11-13T08:00:33;10.10;99.90
12481;DHT22;6305;48.398;11.762;2022-11-13T08:03:04;10.30;99.90
12481;DHT22;6305;48.398;11.762;2022-11-13T08:05:31;10.50;99.90
12481;DHT22;6305;48.398;11.762;2022-11-13T08:07:58;10.60;99.90
12481;DHT22;6305;48.398;11.762;2022-11-13T08:10:26;11.20;99.90
12481;DHT22;6305;48.398;11.762;2022-11-13T08:12:58;11.70;99.90
12481;DHT22;6305;48.398;11.762;2022-11-13T08:15:26;11.90;99.90
12481;DHT22;6305;48.398;11.762;2022-11-13T08:17:54;12.10;99.90
12481;DHT22;6305;48.398;11.762;2022-11-13T08:20:27;12.70;99.90
12481;DHT22;6305;48.398;11.762;2022-11-13T08:23:07;13.90;99.90
12481;DHT22;6305;48.398;11.762;2022-11-13T08:25:47;15.30;99.90
12481;DHT22;6305;48.398;11.762;2022-11-13T08:28:22;16.60;96.20
12481;DHT22;6305;48.398;11.762;2022-11-13T08:31:01;17.60;86.20
12481;DHT22;6305;48.398;11.762;2022-11-13T08:33:30;18.30;78.20
12481;DHT22;6305;48.398;11.762;2022-11-13T08:35:58;19.20;72.00
12481;DHT22;6305;48.398;11.762;2022-11-13T08:38:26;20.00;66.60
12481;DHT22;6305;48.398;11.762;2022-11-13T08:40:56;20.60;60.80
12481;DHT22;6305;48.398;11.762;2022-11-13T08:43:23;20.90;56.80
12481;DHT22;6305;48.398;11.762;2022-11-13T08:45:50;21.20;57.10
12481;DHT22;6305;48.398;11.762;2022-11-13T08:48:17;21.90;56.00
12481;DHT22;6305;48.398;11.762;2022-11-13T08:50:44;22.50;53.70
12481;DHT22;6305;48.398;11.762;2022-11-13T08:53:11;23.10;52.60
12481;DHT22;6305;48.398;11.762;2022-11-13T08:55:38;23.80;51.30
12481;DHT22;6305;48.398;11.762;2022-11-13T08:58:06;24.40;49.60
12481;DHT22;6305;48.398;11.762;2022-11-13T09:00:34;25.10;48.60
12481;DHT22;6305;48.398;11.762;2022-11-13T09:03:01;25.50;46.30
12481;DHT22;6305;48.398;11.762;2022-11-13T09:05:28;25.90;45.40
12481;DHT22;6305;48.398;11.762;2022-11-13T09:07:55;25.90;43.40
12481;DHT22;6305;48.398;11.762;2022-11-13T09:10:23;26.10;43.70
12481;DHT22;6305;48.398;11.762;2022-11-13T09:12:55;26.50;42.70
12481;DHT22;6305;48.398;11.762;2022-11-13T09:15:24;26.60;41.70
12481;DHT22;6305;48.398;11.762;2022-11-13T09:17:51;26.80;41.20
12481;DHT22;6305;48.398;11.762;2022-11-13T09:20:17;27.00;40.50
12481;DHT22;6305;48.398;11.762;2022-11-13T09:22:44;27.20;40.50
12481;DHT22;6305;48.398;11.762;2022-11-13T09:25:11;27.50;40.00
12481;DHT22;6305;48.398;11.762;2022-11-13T09:27:41;27.60;39.10
12481;DHT22;6305;48.398;11.762;2022-11-13T09:30:10;27.80;38.50
12481;DHT22;6305;48.398;11.762;2022-11-13T09:32:41;28.00;38.70
12481;DHT22;6305;48.398;11.762;2022-11-13T09:35:08;28.30;37.90
12481;DHT22;6305;48.398;11.762;2022-11-13T09:37:35;28.40;37.50
12481;DHT22;6305;48.398;11.762;2022-11-13T09:40:02;28.80;37.50
12481;DHT22;6305;48.398;11.762;2022-11-13T09:42:30;29.20;36.40
12481;DHT22;6305;48.398;11.762;2022-11-13T09:45:02;29.40;36.20
12481;DHT22;6305;48.398;11.762;2022-11-13T09:47:35;29.60;35.60
12481;DHT22;6305;48.398;11.762;2022-11-13T09:50:11;29.90;34.60
12481;DHT22;6305;48.398;11.762;2022-11-13T09:52:41;29.80;34.60
12481;DHT22;6305;48.398;11.762;2022-11-13T09:55:11;29.60;34.10
12481;DHT22;6305;48.398;11.762;2022-11-13T09:57:44;29.50;34.40
12481;DHT22;6305;48.398;11.762;2022-11-13T10:00:15;29.50;34.70
12481;DHT22;6305;48.398;11.762;2022-11-13T10:02:53;29.60;34.30
12481;DHT22;6305;48.398;11.762;2022-11-13T10:05:31;29.90;33.80
12481;DHT22;6305;48.398;11.762;2022-11-13T10:08:06;29.50;33.70
12481;DHT22;6305;48.398;11.762;2022-11-13T10:10:46;29.30;34.00
12481;DHT22;6305;48.398;11.762;2022-11-13T10:13:18;29.30;33.90
12481;DHT22;6305;48.398;11.762;2022-11-13T10:15:50;29.40;33.90
12481;DHT22;6305;48.398;11.762;2022-11-13T10:18:20;29.60;33.70
12481;DHT22;6305;48.398;11.762;2022-11-13T10:20:50;29.90;33.20
12481;DHT22;6305;48.398;11.762;2022-11-13T10:23:21;30.00;32.90
12481;DHT22;6305;48.398;11.762;2022-11-13T10:25:49;29.80;33.20
12481;DHT22;6305;48.398;11.762;2022-11-13T10:28:18;29.90;33.40
12481;DHT22;6305;48.398;11.762;2022-11-13T10:30:48;30.30;33.10
12481;DHT22;6305;48.398;11.762;2022-11-13T10:33:18;30.80;32.30
12481;DHT22;6305;48.398;11.762;2022-11-13T10:35:53;30.80;32.10
12481;DHT22;6305;48.398;11.762;2022-11-13T10:38:24;31.30;32.20
12481;DHT22;6305;48.398;11.762;2022-11-13T10:41:03;31.70;31.30
12481;DHT22;6305;48.398;11.762;2022-11-13T10:43:32;31.40;30.60
12481;DHT22;6305;48.398;11.762;2022-11-13T10:46:01;31.20;31.10
12481;DHT22;6305;48.398;11.762;2022-11-13T10:48:30;30.80;31.30
12481;DHT22;6305;48.398;11.762;2022-11-13T10:51:00;30.60;31.70
12481;DHT22;6305;48.398;11.762;2022-11-13T10:53:36;30.70;31.80
12481;DHT22;6305;48.398;11.762;2022-11-13T10:56:12;30.90;31.60
12481;DHT22;6305;48.398;11.762;2022-11-13T10:58:39;31.00;31.60
12481;DHT22;6305;48.398;11.762;2022-11-13T11:01:13;31.00;31.40
12481;DHT22;6305;48.398;11.762;2022-11-13T11:03:48;31.50;31.30
12481;DHT22;6305;48.398;11.762;2022-11-13T11:06:16;31.60;31.20
12481;DHT22;6305;48.398;11.762;2022-11-13T11:08:43;31.90;30.90
12481;DHT22;6305;48.398;11.762;2022-11-13T11:11:14;32.10;30.50
12481;DHT22;6305;48.398;11.762;2022-11-13T11:14:05;32.50;30.40
12481;DHT22;6305;48.398;11.762;2022-11-13T11:16:37;33.00;29.80
12481;DHT22;6305;48.398;11.762;2022-11-13T11:19:11;33.40;29.40
12481;DHT22;6305;48.398;11.762;2022-11-13T11:21:42;33.50;28.80
12481;DHT22;6305;48.398;11.762;2022-11-13T11:24:14;33.90;29.10
12481;DHT22;6305;48.398;11.762;2022-11-13T11:26:48;34.30;28.50
12481;DHT22;6305;48.398;11.762;2022-11-13T11:29:20;34.20;28.40
12481;DHT22;6305;48.398;11.762;2022-11-13T11:31:57;34.30;28.50
12481;DHT22;6305;48.398;11.762;2022-11-13T11:34:30;34.40;28.60
12481;DHT22;6305;48.398;11.762;2022-11-13T11:37:02;34.20;28.40
12481;DHT22;6305;48.398;11.762;2022-11-13T11:39:35;34.20;28.40
12481;DHT22;6305;48.398;11.762;2022-11-13T11:42:11;33.90;28.40
12481;DHT22;6305;48.398;11.762;2022-11-13T11:44:48;33.80;28.50
12481;DHT22;6305;48.398;11.762;2022-11-13T11:47:18;33.70;28.60
12481;DHT22;6305;48.398;11.762;2022-11-13T11:49:45;33.10;28.50
12481;DHT22;6305;48.398;11.762;2022-11-13T11:52:27;32.80;29.10
12481;DHT22;6305;48.398;11.762;2022-11-13T11:55:05;32.80;29.70
12481;DHT22;6305;48.398;11.762;2022-11-13T11:57:43;32.90;29.30
12481;DHT22;6305;48.398;11.762;2022-11-13T12:00:14;32.80;29.20
12481;DHT22;6305;48.398;11.762;2022-11-13T12:02:52;32.70;29.40
12481;DHT22;6305;48.398;11.762;2022-11-13T12:05:27;32.40;29.30
12481;DHT22;6305;48.398;11.762;2022-11-13T12:08:04;32.40;29.90
12481;DHT22;6305;48.398;11.762;2022-11-13T12:10:39;32.30;29.90
12481;DHT22;6305;48.398;11.762;2022-11-13T12:13:27;32.20;30.00
12481;DHT22;6305;48.398;11.762;2022-11-13T12:16:01;32.40;29.90
12481;DHT22;6305;48.398;11.762;2022-11-13T12:18:36;32.40;30.00
12481;DHT22;6305;48.398;11.762;2022-11-13T12:21:21;32.40;29.80
12481;DHT22;6305;48.398;11.762;2022-11-13T12:24:04;32.20;30.00
12481;DHT22;6305;48.398;11.762;2022-11-13T12:26:37;32.30;30.30
12481;DHT22;6305;48.398;11.762;2022-11-13T12:29:19;32.40;30.00
12481;DHT22;6305;48.398;11.762;2022-11-13T12:31:58;32.30;30.20
12481;DHT22;6305;48.398;11.762;2022-11-13T12:34:28;32.50;30.00
12481;DHT22;6305;48.398;11.762;2022-11-13T12:36:58;32.60;30.00
12481;DHT22;6305;48.398;11.762;2022-11-13T12:39:35;32.70;30.00
12481;DHT22;6305;48.398;11.762;2022-11-13T12:42:11;32.40;29.60
12481;DHT22;6305;48.398;11.762;2022-11-13T12:44:47;32.00;30.40
12481;DHT22;6305;48.398;11.762;2022-11-13T12:47:15;31.90;30.70
12481;DHT22;6305;48.398;11.762;2022-11-13T12:49:42;31.90;30.70
12481;DHT22;6305;48.398;11.762;2022-11-13T12:52:17;31.90;30.70
12481;DHT22;6305;48.398;11.762;2022-11-13T12:54:46;32.10;30.90
12481;DHT22;6305;48.398;11.762;2022-11-13T12:57:20;32.10;30.60
12481;DHT22;6305;48.398;11.762;2022-11-13T12:59:49;32.00;30.30
12481;DHT22;6305;48.398;11.762;2022-11-13T13:02:39;31.70;30.60
12481;DHT22;6305;48.398;11.762;2022-11-13T13:05:23;31.50;31.30
12481;DHT22;6305;48.398;11.762;2022-11-13T13:08:13;31.40;31.20
12481;DHT22;6305;48.398;11.762;2022-11-13T13:10:53;31.20;31.60
12481;DHT22;6305;48.398;11.762;2022-11-13T13:13:28;31.10;31.80
12481;DHT22;6305;48.398;11.762;2022-11-13T13:15:58;31.00;31.90
12481;DHT22;6305;48.398;11.762;2022-11-13T13:18:28;31.10;32.20
12481;DHT22;6305;48.398;11.762;2022-11-13T13:21:03;31.40;32.00
12481;DHT22;6305;48.398;11.762;2022-11-13T13:23:32;31.50;31.70
12481;DHT22;6305;48.398;11.762;2022-11-13T13:26:12;31.70;31.40
12481;DHT22;6305;48.398;11.762;2022-11-13T13:28:41;31.80;31.40
12481;DHT22;6305;48.398;11.762;2022-11-13T13:31:20;31.70;31.30
12481;DHT22;6305;48.398;11.762;2022-11-13T13:33:55;31.50;31.40
12481;DHT22;6305;48.398;11.762;2022-11-13T13:36:32;31.50;31.60
12481;DHT22;6305;48.398;11.762;2022-11-13T13:39:07;31.30;31.60
12481;DHT22;6305;48.398;11.762;2022-11-13T13:41:47;30.80;31.60
12481;DHT22;6305;48.398;11.762;2022-11-13T13:44:31;30.20;32.70
12481;DHT22;6305;48.398;11.762;2022-11-13T13:47:05;29.80;33.80
12481;DHT22;6305;48.398;11.762;2022-11-13T13:49:38;29.70;34.40
12481;DHT22;6305;48.398;11.762;2022-11-13T13:52:05;29.50;34.50
12481;DHT22;6305;48.398;11.762;2022-11-13T13:54:36;29.30;34.80
12481;DHT22;6305;48.398;11.762;2022-11-13T13:57:10;29.00;34.70
12481;DHT22;6305;48.398;11.762;2022-11-13T13:59:40;28.80;35.80
12481;DHT22;6305;48.398;11.762;2022-11-13T14:02:14;28.90;35.90
12481;DHT22;6305;48.398;11.762;2022-11-13T14:04:43;29.20;36.00
12481;DHT22;6305;48.398;11.762;2022-11-13T14:07:23;29.10;35.70
12481;DHT22;6305;48.398;11.762;2022-11-13T14:10:07;28.80;35.70
12481;DHT22;6305;48.398;11.762;2022-11-13T14:12:40;28.50;36.20
12481;DHT22;6305;48.398;11.762;2022-11-13T14:15:21;28.20;36.30
12481;DHT22;6305;48.398;11.762;2022-11-13T14:17:48;27.70;36.70
12481;DHT22;6305;48.398;11.762;2022-11-13T14:20:16;27.50;36.90
12481;DHT22;6305;48.398;11.762;2022-11-13T14:22:44;27.50;36.60
12481;DHT22;6305;48.398;11.762;2022-11-13T14:25:17;27.00;36.10
12481;DHT22;6305;48.398;11.762;2022-11-13T14:27:47;26.60;36.60
12481;DHT22;6305;48.398;11.762;2022-11-13T14:30:23;26.40;37.20
12481;DHT22;6305;48.398;11.762;2022-11-13T14:32:50;26.00;37.60
12481;DHT22;6305;48.398;11.762;2022-11-13T14:35:19;25.80;37.80
12481;DHT22;6305;48.398;11.762;2022-11-13T14:37:46;25.60;38.30
12481;DHT22;6305;48.398;11.762;2022-11-13T14:40:20;25.30;38.60
12481;DHT22;6305;48.398;11.762;2022-11-13T14:42:51;25.00;39.00
12481;DHT22;6305;48.398;11.762;2022-11-13T14:45:20;24.10;38.80
12481;DHT22;6305;48.398;11.762;2022-11-13T14:47:58;22.80;40.80
12481;DHT22;6305;48.398;11.762;2022-11-13T14:50:28;21.10;42.60
12481;DHT22;6305;48.398;11.762;2022-11-13T14:52:57;19.70;45.20
12481;DHT22;6305;48.398;11.762;2022-11-13T14:55:26;18.80;47.90
12481;DHT22;6305;48.398;11.762;2022-11-13T14:57:55;17.90;49.40
12481;DHT22;6305;48.398;11.762;2022-11-13T15:00:31;16.90;50.90
12481;DHT22;6305;48.398;11.762;2022-11-13T15:02:59;15.70;53.30
12481;DHT22;6305;48.398;11.762;2022-11-13T15:05:26;14.60;56.20
12481;DHT22;6305;48.398;11.762;2022-11-13T15:07:53;13.70;59.20
12481;DHT22;6305;48.398;11.762;2022-11-13T15:10:22;12.90;63.00
12481;DHT22;6305;48.398;11.762;2022-11-13T15:12:50;12.30;68.90
12481;DHT22;6305;48.398;11.762;2022-11-13T15:15:22;11.80;76.70
12481;DHT22;6305;48.398;11.762;2022-11-13T15:17:50;11.40;86.90
12481;DHT22;6305;48.398;11.762;2022-11-13T15:20:21;11.10;93.40
12481;DHT22;6305;48.398;11.762;2022-11-13T15:22:49;10.80;97.60
12481;DHT22;6305;48.398;11.762;2022-11-13T15:25:19;10.50;99.90
12481;DHT22;6305;48.398;11.762;2022-11-13T15:27:46;10.30;99.90
12481;DHT22;6305;48.398;11.762;2022-11-13T15:30:13;10.10;99.90
12481;DHT22;6305;48.398;11.762;2022-11-13T15:32:42;9.80;99.90
12481;DHT22;6305;48.398;11.762;2022-11-13T15:35:14;9.60;99.90
12481;DHT22;6305;48.398;11.762;2022-11-13T15:37:41;9.40;99.90
12481;DHT22;6305;48.398;11.762;2022-11-13T15:40:08;9.20;99.90
12481;DHT22;6305;48.398;11.762;2022-11-13T15:42:35;9.10;99.90
12481;DHT22;6305;48.398;11.762;2022-11-13T15:45:03;8.90;99.90
12481;DHT22;6305;48.398;11.762;2022-11-13T15:47:33;8.80;99.90
12481;DHT22;6305;48.398;11.762;2022-11-13T15:50:02;8.70;99.90
12481;DHT22;6305;48.398;11.762;2022-11-13T15:52:31;8.50;99.90
12481;DHT22;6305;48.398;11.762;2022-11-13T15:55:01;8.40;99.90
12481;DHT22;6305;48.398;11.762;2022-11-13T15:57:29;8.20;99.90